sensor_id;sensor_type;location;lat;lon;timestamp;pressure;altitude;pressure_sealevel;temperature;humidity
13456;BME280;6800;50.940;6.940;2023-04-01T00:03:55;98717.97;;;21.35;39.00
13456;BME280;6800;50.940;6.940;2023-04-01T00:07:57;98712.00;;;21.53;38.75
13456;BME280;6800;50.940;6.940;2023-04-01T00:11:58;98714.44;;;21.87;38.35
13456;BME280;6800;50.940;6.940;2023-04-01T00:16:00;98714.88;;;21.38;39.27
13456;BME280;6800;50.940;6.940;2023-04-01T00:20:05;98714.66;;;21.14;39.00
13456;BME280;6800;50.940;6.940;2023-04-01T00:24:08;98713.59;;;20.95;39.62
13456;BME280;6800;50.940;6.940;2023-04-01T00:28:09;98711.22;;;21.33;39.03
13456;BME280;6800;50.940;6.940;2023-04-01T00:32:11;98713.03;;;21.19;39.54
13456;BME280;6800;50.940;6.940;2023-04-01T00:36:15;98709.94;;;21.74;38.17
13456;BME280;6800;50.940;6.940;2023-04-01T00:40:25;98703.41;;;21.77;38.44
13456;BME280;6800;50.940;6.940;2023-04-01T00:44:32;98706.28;;;21.17;39.35
13456;BME280;6800;50.940;6.940;2023-04-01T00:48:36;98707.31;;;21.55;39.03
13456;BME280;6800;50.940;6.940;2023-04-01T00:52:39;98704.44;;;21.83;38.40
13456;BME280;6800;50.940;6.940;2023-04-01T00:56:45;98699.94;;;21.50;38.66
13456;BME280;6800;50.940;6.940;2023-04-01T01:00:50;98694.66;;;21.11;39.21
13456;BME280;6800;50.940;6.940;2023-04-01T01:04:52;98703.16;;;20.93;39.37
13456;BME280;6800;50.940;6.940;2023-04-01T01:13:27;98692.00;;;21.24;39.22
13456;BME280;6800;50.940;6.940;2023-04-01T01:31:08;98689.72;;;21.87;37.84
13456;BME280;6800;50.940;6.940;2023-04-01T01:35:33;98689.38;;;21.24;39.42
13456;BME280;6800;50.940;6.940;2023-04-01T01:39:37;98688.72;;;21.55;38.92
13456;BME280;6800;50.940;6.940;2023-04-01T01:43:42;98681.56;;;21.55;39.49
13456;BME280;6800;50.940;6.940;2023-04-01T01:47:45;98689.53;;;21.55;39.72
13456;BME280;6800;50.940;6.940;2023-04-01T01:51:47;98680.94;;;21.93;39.09
13456;BME280;6800;50.940;6.940;2023-04-01T01:55:49;98689.31;;;21.63;39.82
13456;BME280;6800;50.940;6.940;2023-04-01T01:59:52;98689.53;;;21.42;40.27
13456;BME280;6800;50.940;6.940;2023-04-01T02:03:57;98694.03;;;21.09;40.88
13456;BME280;6800;50.940;6.940;2023-04-01T02:08:05;98700.09;;;20.77;41.91
13456;BME280;6800;50.940;6.940;2023-04-01T02:12:10;98696.69;;;21.48;41.12
13456;BME280;6800;50.940;6.940;2023-04-01T02:16:28;98697.53;;;21.10;41.67
13456;BME280;6800;50.940;6.940;2023-04-01T02:20:34;98700.97;;;21.10;42.26
13456;BME280;6800;50.940;6.940;2023-04-01T02:24:39;98699.91;;;20.91;42.83
13456;BME280;6800;50.940;6.940;2023-04-01T02:28:44;98693.34;;;20.74;42.91
13456;BME280;6800;50.940;6.940;2023-04-01T02:32:46;98688.63;;;20.70;43.60
13456;BME280;6800;50.940;6.940;2023-04-01T02:36:50;98688.97;;;20.41;44.54
13456;BME280;6800;50.940;6.940;2023-04-01T02:40:59;98692.00;;;19.97;45.53
13456;BME280;6800;50.940;6.940;2023-04-01T02:45:01;98697.19;;;19.77;45.76
13456;BME280;6800;50.940;6.940;2023-04-01T02:49:03;98678.13;;;20.29;44.94
13456;BME280;6800;50.940;6.940;2023-04-01T02:53:04;98690.22;;;20.10;44.75
13456;BME280;6800;50.940;6.940;2023-04-01T02:57:09;98690.16;;;20.38;44.35
13456;BME280;6800;50.940;6.940;2023-04-01T03:01:11;98678.19;;;20.42;44.75
13456;BME280;6800;50.940;6.940;2023-04-01T03:05:13;98683.13;;;20.65;43.89
13456;BME280;6800;50.940;6.940;2023-04-01T03:09:14;98685.53;;;20.53;43.78
13456;BME280;6800;50.940;6.940;2023-04-01T03:13:16;98691.22;;;20.44;44.08
13456;BME280;6800;50.940;6.940;2023-04-01T03:17:17;98684.41;;;20.21;43.60
13456;BME280;6800;50.940;6.940;2023-04-01T03:21:21;98698.66;;;20.74;43.04
13456;BME280;6800;50.940;6.940;2023-04-01T03:25:23;98688.44;;;20.65;43.21
13456;BME280;6800;50.940;6.940;2023-04-01T03:29:24;98693.94;;;20.70;42.42
13456;BME280;6800;50.940;6.940;2023-04-01T03:33:26;98695.41;;;20.92;43.07
13456;BME280;6800;50.940;6.940;2023-04-01T03:37:27;98702.22;;;20.41;43.56
13456;BME280;6800;50.940;6.940;2023-04-01T03:41:29;98697.22;;;20.72;42.87
13456;BME280;6800;50.940;6.940;2023-04-01T03:45:31;98711.91;;;20.74;42.86
13456;BME280;6800;50.940;6.940;2023-04-01T03:49:34;98697.63;;;20.69;42.89
13456;BME280;6800;50.940;6.940;2023-04-01T03:53:35;98698.06;;;20.92;42.23
13456;BME280;6800;50.940;6.940;2023-04-01T03:57:37;98703.56;;;20.84;42.41
13456;BME280;6800;50.940;6.940;2023-04-01T04:01:38;98697.03;;;20.73;42.25
13456;BME280;6800;50.940;6.940;2023-04-01T04:05:47;98704.53;;;20.70;42.26
13456;BME280;6800;50.940;6.940;2023-04-01T04:09:48;98712.66;;;20.55;42.96
13456;BME280;6800;50.940;6.940;2023-04-01T04:13:50;98705.19;;;20.78;41.95
13456;BME280;6800;50.940;6.940;2023-04-01T04:17:51;98706.25;;;20.97;42.44
13456;BME280;6800;50.940;6.940;2023-04-01T04:21:53;98707.03;;;20.91;42.47
13456;BME280;6800;50.940;6.940;2023-04-01T04:26:00;98712.34;;;20.91;42.65
13456;BME280;6800;50.940;6.940;2023-04-01T04:30:04;98706.25;;;20.97;42.12
13456;BME280;6800;50.940;6.940;2023-04-01T04:34:06;98712.56;;;20.96;42.19
13456;BME280;6800;50.940;6.940;2023-04-01T04:38:07;98712.22;;;21.12;41.83
13456;BME280;6800;50.940;6.940;2023-04-01T04:42:09;98709.72;;;20.84;42.38
13456;BME280;6800;50.940;6.940;2023-04-01T04:46:10;98709.22;;;20.68;42.94
13456;BME280;6800;50.940;6.940;2023-04-01T04:50:12;98720.72;;;20.88;42.80
13456;BME280;6800;50.940;6.940;2023-04-01T04:54:14;98725.84;;;20.96;42.86
13456;BME280;6800;50.940;6.940;2023-04-01T04:58:15;98722.69;;;20.66;43.82
13456;BME280;6800;50.940;6.940;2023-04-01T05:02:17;98729.06;;;20.72;43.70
13456;BME280;6800;50.940;6.940;2023-04-01T05:06:19;98737.94;;;20.51;44.30
13456;BME280;6800;50.940;6.940;2023-04-01T05:10:23;98729.44;;;20.69;44.38
13456;BME280;6800;50.940;6.940;2023-04-01T05:14:25;98734.75;;;20.69;44.29
13456;BME280;6800;50.940;6.940;2023-04-01T05:18:26;98741.28;;;20.73;44.26
13456;BME280;6800;50.940;6.940;2023-04-01T05:22:27;98748.38;;;20.53;44.52
13456;BME280;6800;50.940;6.940;2023-04-01T05:26:29;98744.91;;;20.59;44.38
13456;BME280;6800;50.940;6.940;2023-04-01T05:30:30;98749.84;;;20.75;44.43
13456;BME280;6800;50.940;6.940;2023-04-01T05:34:33;98757.22;;;20.79;44.05
13456;BME280;6800;50.940;6.940;2023-04-01T05:38:35;98757.59;;;19.95;45.94
13456;BME280;6800;50.940;6.940;2023-04-01T05:42:36;98757.50;;;20.44;44.98
13456;BME280;6800;50.940;6.940;2023-04-01T05:46:38;98764.53;;;20.71;44.23
13456;BME280;6800;50.940;6.940;2023-04-01T05:50:40;98768.41;;;20.68;44.96
13456;BME280;6800;50.940;6.940;2023-04-01T05:54:43;98761.25;;;20.69;45.29
13456;BME280;6800;50.940;6.940;2023-04-01T05:58:46;98764.84;;;20.42;45.35
13456;BME280;6800;50.940;6.940;2023-04-01T06:02:51;98764.28;;;20.66;45.56
13456;BME280;6800;50.940;6.940;2023-04-01T06:06:56;98768.81;;;20.78;45.48
13456;BME280;6800;50.940;6.940;2023-04-01T06:15:52;98776.41;;;20.81;45.33
13456;BME280;6800;50.940;6.940;2023-04-01T06:46:46;98797.47;;;20.42;45.99
13456;BME280;6800;50.940;6.940;2023-04-01T06:55:24;98801.31;;;20.93;45.26
13456;BME280;6800;50.940;6.940;2023-04-01T06:59:30;98791.13;;;20.90;45.52
13456;BME280;6800;50.940;6.940;2023-04-01T07:03:37;98797.75;;;21.14;44.79
13456;BME280;6800;50.940;6.940;2023-04-01T07:07:50;98803.84;;;21.08;44.58
13456;BME280;6800;50.940;6.940;2023-04-01T07:11:58;98800.53;;;20.93;45.23
13456;BME280;6800;50.940;6.940;2023-04-01T07:16:08;98809.16;;;21.08;45.16
13456;BME280;6800;50.940;6.940;2023-04-01T07:20:36;98816.34;;;21.14;44.85
13456;BME280;6800;50.940;6.940;2023-04-01T07:24:40;98806.72;;;21.07;44.80
13456;BME280;6800;50.940;6.940;2023-04-01T07:28:44;98823.66;;;20.65;45.95
13456;BME280;6800;50.940;6.940;2023-04-01T07:32:55;98833.66;;;21.04;45.59
13456;BME280;6800;50.940;6.940;2023-04-01T07:37:27;98838.34;;;21.08;45.08
13456;BME280;6800;50.940;6.940;2023-04-01T07:46:26;98846.94;;;21.17;45.32
13456;BME280;6800;50.940;6.940;2023-04-01T07:51:02;98847.59;;;20.78;46.37
13456;BME280;6800;50.940;6.940;2023-04-01T07:55:18;98859.59;;;21.15;45.35
13456;BME280;6800;50.940;6.940;2023-04-01T08:03:48;98854.50;;;21.13;45.58
13456;BME280;6800;50.940;6.940;2023-04-01T08:08:19;98867.63;;;21.34;45.36
13456;BME280;6800;50.940;6.940;2023-04-01T08:16:46;98873.19;;;20.98;45.40
13456;BME280;6800;50.940;6.940;2023-04-01T08:20:59;98886.41;;;21.26;45.81
13456;BME280;6800;50.940;6.940;2023-04-01T08:25:04;98895.69;;;21.03;45.73
13456;BME280;6800;50.940;6.940;2023-04-01T08:29:13;98902.50;;;20.50;47.06
13456;BME280;6800;50.940;6.940;2023-04-01T08:33:27;98907.56;;;21.13;46.20
13456;BME280;6800;50.940;6.940;2023-04-01T08:37:31;98910.22;;;20.79;46.68
13456;BME280;6800;50.940;6.940;2023-04-01T08:50:36;98919.25;;;20.84;46.09
13456;BME280;6800;50.940;6.940;2023-04-01T09:07:41;98929.44;;;21.15;45.54
13456;BME280;6800;50.940;6.940;2023-04-01T09:25:14;98954.75;;;20.83;46.69
13456;BME280;6800;50.940;6.940;2023-04-01T09:42:44;98973.56;;;21.23;46.14
13456;BME280;6800;50.940;6.940;2023-04-01T09:51:38;98985.31;;;21.48;45.03
13456;BME280;6800;50.940;6.940;2023-04-01T10:00:32;98988.22;;;21.12;45.94
13456;BME280;6800;50.940;6.940;2023-04-01T10:09:03;98995.75;;;21.56;45.13
13456;BME280;6800;50.940;6.940;2023-04-01T10:17:57;99003.06;;;22.08;43.74
13456;BME280;6800;50.940;6.940;2023-04-01T10:26:51;99015.47;;;21.81;43.96
13456;BME280;6800;50.940;6.940;2023-04-01T10:31:28;99026.38;;;22.06;43.31
13456;BME280;6800;50.940;6.940;2023-04-01T10:36:18;99020.72;;;22.35;42.56
13456;BME280;6800;50.940;6.940;2023-04-01T10:45:23;99036.25;;;21.24;44.45
13456;BME280;6800;50.940;6.940;2023-04-01T11:02:57;99031.59;;;22.86;41.79
13456;BME280;6800;50.940;6.940;2023-04-01T11:07:25;99039.13;;;22.43;42.23
13456;BME280;6800;50.940;6.940;2023-04-01T11:34:05;99058.53;;;23.55;39.19
13456;BME280;6800;50.940;6.940;2023-04-01T11:38:35;99064.31;;;23.12;40.71
13456;BME280;6800;50.940;6.940;2023-04-01T11:43:05;99070.69;;;22.98;41.30
13456;BME280;6800;50.940;6.940;2023-04-01T11:47:19;99066.31;;;22.32;42.12
13456;BME280;6800;50.940;6.940;2023-04-01T11:51:55;99083.56;;;22.88;41.23
13456;BME280;6800;50.940;6.940;2023-04-01T11:57:01;99080.50;;;22.65;41.59
13456;BME280;6800;50.940;6.940;2023-04-01T12:04:47;99090.50;;;22.57;41.84
13456;BME280;6800;50.940;6.940;2023-04-01T12:30:32;99120.84;;;23.14;40.37
13456;BME280;6800;50.940;6.940;2023-04-01T12:35:13;99120.44;;;23.24;39.76
13456;BME280;6800;50.940;6.940;2023-04-01T12:53:01;99137.00;;;22.80;40.60
13456;BME280;6800;50.940;6.940;2023-04-01T12:57:21;99129.25;;;22.98;39.81
13456;BME280;6800;50.940;6.940;2023-04-01T13:11:25;99141.09;;;23.28;39.58
13456;BME280;6800;50.940;6.940;2023-04-01T13:15:26;99160.34;;;22.85;40.75
13456;BME280;6800;50.940;6.940;2023-04-01T13:24:16;99158.75;;;23.10;40.23
13456;BME280;6800;50.940;6.940;2023-04-01T13:28:27;99167.84;;;22.55;40.61
13456;BME280;6800;50.940;6.940;2023-04-01T13:41:02;99171.16;;;22.10;41.83
13456;BME280;6800;50.940;6.940;2023-04-01T14:02:34;99197.66;;;22.98;41.74
13456;BME280;6800;50.940;6.940;2023-04-01T14:06:58;99191.91;;;23.07;40.98
13456;BME280;6800;50.940;6.940;2023-04-01T14:11:26;99206.59;;;22.71;42.05
13456;BME280;6800;50.940;6.940;2023-04-01T14:20:14;99218.00;;;22.58;42.61
13456;BME280;6800;50.940;6.940;2023-04-01T14:33:28;99232.19;;;21.90;44.01
13456;BME280;6800;50.940;6.940;2023-04-01T14:42:38;99236.19;;;21.52;45.30
13456;BME280;6800;50.940;6.940;2023-04-01T14:46:56;99241.16;;;21.61;45.50
13456;BME280;6800;50.940;6.940;2023-04-01T14:51:18;99240.75;;;21.37;46.08
13456;BME280;6800;50.940;6.940;2023-04-01T14:55:29;99248.41;;;22.02;45.15
13456;BME280;6800;50.940;6.940;2023-04-01T14:59:39;99244.00;;;22.56;43.62
13456;BME280;6800;50.940;6.940;2023-04-01T15:04:21;99248.41;;;22.83;43.37
13456;BME280;6800;50.940;6.940;2023-04-01T15:13:15;99266.00;;;22.37;43.22
13456;BME280;6800;50.940;6.940;2023-04-01T15:26:28;99279.84;;;22.26;42.97
13456;BME280;6800;50.940;6.940;2023-04-01T15:30:52;99270.38;;;22.17;42.69
13456;BME280;6800;50.940;6.940;2023-04-01T15:35:09;99279.38;;;22.50;42.02
13456;BME280;6800;50.940;6.940;2023-04-01T15:39:21;99289.28;;;22.28;42.27
13456;BME280;6800;50.940;6.940;2023-04-01T15:43:44;99299.13;;;21.79;42.72
13456;BME280;6800;50.940;6.940;2023-04-01T15:48:00;99301.56;;;22.02;42.62
13456;BME280;6800;50.940;6.940;2023-04-01T15:52:09;99312.16;;;22.29;41.77
13456;BME280;6800;50.940;6.940;2023-04-01T15:56:36;99311.63;;;22.40;41.55
13456;BME280;6800;50.940;6.940;2023-04-01T16:00:52;99311.09;;;22.17;42.25
13456;BME280;6800;50.940;6.940;2023-04-01T16:05:10;99317.50;;;22.29;42.34
13456;BME280;6800;50.940;6.940;2023-04-01T16:09:55;99324.25;;;21.76;43.16
13456;BME280;6800;50.940;6.940;2023-04-01T16:22:40;99345.91;;;22.22;42.35
13456;BME280;6800;50.940;6.940;2023-04-01T16:26:56;99348.78;;;22.27;42.92
13456;BME280;6800;50.940;6.940;2023-04-01T16:35:59;99359.53;;;21.70;44.16
13456;BME280;6800;50.940;6.940;2023-04-01T16:44:26;99368.66;;;21.61;44.07
13456;BME280;6800;50.940;6.940;2023-04-01T16:48:44;99373.91;;;21.55;44.22
13456;BME280;6800;50.940;6.940;2023-04-01T16:53:09;99377.78;;;21.73;43.98
13456;BME280;6800;50.940;6.940;2023-04-01T16:57:19;99382.50;;;21.57;44.55
13456;BME280;6800;50.940;6.940;2023-04-01T17:01:27;99396.59;;;21.57;44.36
13456;BME280;6800;50.940;6.940;2023-04-01T17:10:07;99397.06;;;21.61;44.50
13456;BME280;6800;50.940;6.940;2023-04-01T17:14:36;99407.47;;;21.41;44.69
13456;BME280;6800;50.940;6.940;2023-04-01T17:27:48;99430.75;;;21.60;44.94
13456;BME280;6800;50.940;6.940;2023-04-01T17:40:46;99444.72;;;21.12;45.72
13456;BME280;6800;50.940;6.940;2023-04-01T17:45:09;99449.31;;;20.95;45.82
13456;BME280;6800;50.940;6.940;2023-04-01T17:54:21;99471.28;;;20.89;45.95
13456;BME280;6800;50.940;6.940;2023-04-01T18:03:38;99474.53;;;21.14;45.53
13456;BME280;6800;50.940;6.940;2023-04-01T18:24:35;99517.84;;;20.63;46.73
13456;BME280;6800;50.940;6.940;2023-04-01T18:28:43;99522.59;;;20.67;46.19
13456;BME280;6800;50.940;6.940;2023-04-01T18:32:57;99531.69;;;21.02;45.88
13456;BME280;6800;50.940;6.940;2023-04-01T18:37:19;99533.63;;;21.08;46.22
13456;BME280;6800;50.940;6.940;2023-04-01T18:41:32;99538.00;;;20.86;46.27
13456;BME280;6800;50.940;6.940;2023-04-01T18:45:43;99538.41;;;21.13;45.64
13456;BME280;6800;50.940;6.940;2023-04-01T18:54:33;99555.75;;;20.86;45.99
13456;BME280;6800;50.940;6.940;2023-04-01T18:59:25;99564.19;;;21.04;45.75
13456;BME280;6800;50.940;6.940;2023-04-01T19:03:43;99568.28;;;20.92;45.82
13456;BME280;6800;50.940;6.940;2023-04-01T19:07:56;99574.88;;;20.96;45.68
13456;BME280;6800;50.940;6.940;2023-04-01T19:12:31;99580.22;;;20.73;46.42
13456;BME280;6800;50.940;6.940;2023-04-01T19:17:00;99584.53;;;20.89;46.29
13456;BME280;6800;50.940;6.940;2023-04-01T19:21:21;99590.69;;;20.89;45.71
13456;BME280;6800;50.940;6.940;2023-04-01T19:25:47;99590.09;;;20.65;46.48
13456;BME280;6800;50.940;6.940;2023-04-01T19:30:21;99597.31;;;20.71;46.12
13456;BME280;6800;50.940;6.940;2023-04-01T19:34:35;99595.88;;;20.83;46.05
13456;BME280;6800;50.940;6.940;2023-04-01T19:39:05;99599.28;;;20.91;46.09
13456;BME280;6800;50.940;6.940;2023-04-01T19:52:33;99608.75;;;20.49;46.71
13456;BME280;6800;50.940;6.940;2023-04-01T19:56:46;99619.00;;;20.74;46.10
13456;BME280;6800;50.940;6.940;2023-04-01T20:00:51;99624.22;;;20.14;47.18
13456;BME280;6800;50.940;6.940;2023-04-01T20:04:58;99632.63;;;20.49;46.59
13456;BME280;6800;50.940;6.940;2023-04-01T20:09:35;99635.47;;;20.16;47.21
13456;BME280;6800;50.940;6.940;2023-04-01T20:18:23;99647.06;;;20.46;46.70
13456;BME280;6800;50.940;6.940;2023-04-01T20:26:46;99659.13;;;20.18;47.24
13456;BME280;6800;50.940;6.940;2023-04-01T20:30:54;99665.84;;;20.37;46.42
13456;BME280;6800;50.940;6.940;2023-04-01T20:35:22;99676.38;;;20.53;46.59
13456;BME280;6800;50.940;6.940;2023-04-01T20:39:54;99681.78;;;20.59;46.81
13456;BME280;6800;50.940;6.940;2023-04-01T20:44:13;99682.13;;;20.56;46.88
13456;BME280;6800;50.940;6.940;2023-04-01T20:52:56;99691.16;;;20.70;46.77
13456;BME280;6800;50.940;6.940;2023-04-01T21:06:04;99698.25;;;20.47;46.58
13456;BME280;6800;50.940;6.940;2023-04-01T21:15:02;99703.56;;;20.47;46.91
13456;BME280;6800;50.940;6.940;2023-04-01T21:19:38;99712.88;;;20.43;47.17
13456;BME280;6800;50.940;6.940;2023-04-01T21:23:57;99707.81;;;20.56;46.86
13456;BME280;6800;50.940;6.940;2023-04-01T21:32:46;99716.91;;;20.31;47.24
13456;BME280;6800;50.940;6.940;2023-04-01T21:37:07;99714.03;;;20.40;47.09
13456;BME280;6800;50.940;6.940;2023-04-01T21:41:20;99725.75;;;20.23;47.28
13456;BME280;6800;50.940;6.940;2023-04-01T21:45:38;99727.09;;;20.50;47.01
13456;BME280;6800;50.940;6.940;2023-04-01T21:58:30;99738.72;;;20.41;46.78
13456;BME280;6800;50.940;6.940;2023-04-01T22:07:34;99734.53;;;20.54;47.19
13456;BME280;6800;50.940;6.940;2023-04-01T22:11:48;99747.97;;;20.53;46.54
13456;BME280;6800;50.940;6.940;2023-04-01T22:16:20;99750.38;;;20.62;46.58
13456;BME280;6800;50.940;6.940;2023-04-01T22:21:04;99744.94;;;20.56;46.62
13456;BME280;6800;50.940;6.940;2023-04-01T22:25:14;99758.34;;;20.62;47.05
13456;BME280;6800;50.940;6.940;2023-04-01T22:29:34;99760.81;;;20.64;47.14
13456;BME280;6800;50.940;6.940;2023-04-01T22:38:18;99769.78;;;20.63;46.77
13456;BME280;6800;50.940;6.940;2023-04-01T22:46:43;99780.28;;;20.79;46.82
13456;BME280;6800;50.940;6.940;2023-04-01T22:50:56;99779.09;;;20.59;46.66
13456;BME280;6800;50.940;6.940;2023-04-01T22:55:21;99785.91;;;20.53;46.88
13456;BME280;6800;50.940;6.940;2023-04-01T22:59:34;99792.75;;;20.40;47.08
13456;BME280;6800;50.940;6.940;2023-04-01T23:03:41;99793.38;;;20.50;46.70
13456;BME280;6800;50.940;6.940;2023-04-01T23:07:56;99802.47;;;20.55;47.06
13456;BME280;6800;50.940;6.940;2023-04-01T23:12:10;99809.19;;;20.74;46.79
13456;BME280;6800;50.940;6.940;2023-04-01T23:16:15;99809.53;;;20.71;46.84
13456;BME280;6800;50.940;6.940;2023-04-01T23:20:33;99815.47;;;20.73;46.96
13456;BME280;6800;50.940;6.940;2023-04-01T23:24:55;99817.25;;;20.88;46.73
13456;BME280;6800;50.940;6.940;2023-04-01T23:29:03;99824.69;;;20.85;46.65
13456;BME280;6800;50.940;6.940;2023-04-01T23:37:21;99838.19;;;20.75;46.97
13456;BME280;6800;50.940;6.940;2023-04-01T23:41:33;99849.88;;;20.89;47.05
13456;BME280;6800;50.940;6.940;2023-04-01T23:45:35;99859.13;;;20.62;47.34
13456;BME280;6800;50.940;6.940;2023-04-01T23:49:45;99866.47;;;20.52;47.77
13456;BME280;6800;50.940;6.940;2023-04-01T23:54:05;99875.28;;;20.37;48.36
13456;BME280;6800;50.940;6.940;2023-04-01T23:58:26;99895.16;;;19.02;52.03
